Thursday, December 18, 2014
22:22 UTC
  |  Log In   |  Register Free
Airport Search:

Norwood Memorial Airport
(KOWD)

FAA data valid effective November 13, 2014 - January 08, 2015 (unless otherwise noted).

 
 
 
 
 
 
 
 
 
 
 
 
 
 

Current Aviation Weather for Norwood Memorial Airport (KOWD)

The most recent METAR observation for KOWD was updated at: 2117
METAR Summary (Translated METAR)
KOWD
182053Z 27009KT 10SM OVC037 05/M02 A2981 RMK AO2 SLP094 T00501022 53012
KBOS
182054Z 28009G17KT 10SM BKN039 06/M02 A2980 RMK AO2 SLP092 T00561017 53013
(12.7 nm NE from KOWD)
KBED
182056Z 30012G23KT 10SM BKN037 04/M03 A2980 RMK AO2 SLP106 T00441028 53013
(17.6 nm NW from KOWD)
TAF Summary (Translated TAF)
KBOS
(12.7 nm NE from KOWD)
182102Z 1821/1924 29012G20KT P6SM BKN040 FM182300 29012G20KT P6SM SCT035 BKN070 FM190300 30011G20KT P6SM SCT250 FM191500 31010KT P6SM BKN050
KBED
(17.6 nm NW from KOWD)
181723Z 1818/1918 29015G25KT P6SM BKN035 FM182100 29012G21KT P6SM SCT035 BKN070 FM190000 29008KT P6SM BKN250
  Airport Weather Conditions for KOWD

 Current Weather at OWD
41° F
Overcast
West winds at 9.2 mph
OWD NOAA Radar

Pressure: 29.82 in
Humidity: 60%
Wind: West at 9.2 MPH (8 KT)
Dew Point: 28.0°F
Visibility: 10.00 mi


Airport Weather Forecast for KOWD

Translated METAR and TAF for KOWD
Translated METAR for KOWD (2223 UTC 18 December 2014)
found at http://aviationweather.gov/adds/metars/
 
METAR text: KOWD 182153Z 28008KT 10SM OVC037 05/M02 A2982 RMK AO2 SLP099 T00501022
Conditions at: KOWD (NORWOOD , MA, US) observed 2153 UTC 18 December 2014
Temperature: 5.0°C (41°F)
Dewpoint: -2.2°C (28°F) [RH = 60%]
Pressure (altimeter): 29.82 inches Hg (1009.9 mb)
[Sea-level pressure: 1009.9 mb]
Winds: from the W (280 degrees) at 9 MPH (8 knots; 4.2 m/s)
Visibility: 10 or more miles (16+ km)
Ceiling: 3700 feet AGL
Clouds: overcast cloud deck at 3700 feet AGL
Weather: no significant weather observed at this time
Translated TAF for KOWD

There is no translated TAF available for this airport

Find All Airport Services Find A Hotel Find A Rental Car Find A Golf Course Find A Restaurant $100 Hamburger



FBO's on the Field
FBO Company Facility Photos Services Transportation Aviation Fuel Prices: Prices include tax
Catering Weather Repair Courtesy Rental Type 100LL JetA JetA+ MOGAS 8087
 
FlightLevel Aviation

Currently rated 2.7 by 2 people
FS:Shell
Last Updated: Dec-17
Login to update fuel prices
SS:
Contact FlightLevel AviationMore FBO Information
 
Add another FBO Facility Photos Catering Weather Repair Courtesy Rental Type 100LL JetA JetA+ MOGAS 8087
Services Transportation Aviation Fuel Prices: Prices include tax


model-print
model-print
model-print
model-print